sensor_id;sensor_type;location;lat;lon;timestamp;P1;durP1;ratioP1;P2;durP2;ratioP2
16727;SDS011;8482;54.396;18.590;2023-04-27T00:00:46;4.60;;;1.80;;
16727;SDS011;8482;54.396;18.590;2023-04-27T00:03:12;6.93;;;1.53;;
16727;SDS011;8482;54.396;18.590;2023-04-27T00:05:38;4.57;;;1.47;;
16727;SDS011;8482;54.396;18.590;2023-04-27T00:08:07;4.93;;;1.30;;
16727;SDS011;8482;54.396;18.590;2023-04-27T00:10:33;5.37;;;1.50;;
16727;SDS011;8482;54.396;18.590;2023-04-27T00:12:59;3.53;;;1.37;;
16727;SDS011;8482;54.396;18.590;2023-04-27T00:15:26;4.47;;;1.40;;
16727;SDS011;8482;54.396;18.590;2023-04-27T00:17:53;7.83;;;1.50;;
16727;SDS011;8482;54.396;18.590;2023-04-27T00:20:19;4.15;;;1.40;;
16727;SDS011;8482;54.396;18.590;2023-04-27T00:22:45;3.83;;;1.30;;
16727;SDS011;8482;54.396;18.590;2023-04-27T00:25:11;5.17;;;2.30;;
16727;SDS011;8482;54.396;18.590;2023-04-27T00:27:37;3.53;;;1.20;;
16727;SDS011;8482;54.396;18.590;2023-04-27T00:30:03;6.23;;;1.30;;
16727;SDS011;8482;54.396;18.590;2023-04-27T00:32:30;4.20;;;1.50;;
16727;SDS011;8482;54.396;18.590;2023-04-27T00:34:56;4.43;;;1.63;;
16727;SDS011;8482;54.396;18.590;2023-04-27T00:37:22;5.10;;;1.50;;
16727;SDS011;8482;54.396;18.590;2023-04-27T00:39:47;5.20;;;1.67;;
16727;SDS011;8482;54.396;18.590;2023-04-27T00:42:13;4.67;;;1.43;;
16727;SDS011;8482;54.396;18.590;2023-04-27T00:44:43;3.73;;;1.30;;
16727;SDS011;8482;54.396;18.590;2023-04-27T00:47:10;4.90;;;1.43;;
16727;SDS011;8482;54.396;18.590;2023-04-27T00:49:37;6.37;;;1.57;;
16727;SDS011;8482;54.396;18.590;2023-04-27T00:52:03;7.20;;;1.85;;
16727;SDS011;8482;54.396;18.590;2023-04-27T00:54:30;4.40;;;1.40;;
16727;SDS011;8482;54.396;18.590;2023-04-27T00:56:56;5.30;;;1.83;;
16727;SDS011;8482;54.396;18.590;2023-04-27T00:59:23;5.07;;;1.40;;
16727;SDS011;8482;54.396;18.590;2023-04-27T01:01:49;3.87;;;1.33;;
16727;SDS011;8482;54.396;18.590;2023-04-27T01:04:16;3.87;;;1.50;;
16727;SDS011;8482;54.396;18.590;2023-04-27T01:06:42;5.80;;;1.63;;
16727;SDS011;8482;54.396;18.590;2023-04-27T01:09:08;5.60;;;1.33;;
16727;SDS011;8482;54.396;18.590;2023-04-27T01:11:35;9.30;;;2.57;;
16727;SDS011;8482;54.396;18.590;2023-04-27T01:14:04;5.57;;;1.73;;
16727;SDS011;8482;54.396;18.590;2023-04-27T01:16:31;6.10;;;1.70;;
16727;SDS011;8482;54.396;18.590;2023-04-27T01:18:59;6.90;;;1.90;;
16727;SDS011;8482;54.396;18.590;2023-04-27T01:21:25;4.73;;;1.43;;
16727;SDS011;8482;54.396;18.590;2023-04-27T01:23:51;6.03;;;1.70;;
16727;SDS011;8482;54.396;18.590;2023-04-27T01:26:18;5.13;;;1.37;;
16727;SDS011;8482;54.396;18.590;2023-04-27T01:28:44;4.50;;;1.40;;
16727;SDS011;8482;54.396;18.590;2023-04-27T01:31:10;4.47;;;1.60;;
16727;SDS011;8482;54.396;18.590;2023-04-27T01:33:37;4.33;;;1.70;;
16727;SDS011;8482;54.396;18.590;2023-04-27T01:36:04;3.43;;;1.60;;
16727;SDS011;8482;54.396;18.590;2023-04-27T01:38:34;4.57;;;2.00;;
16727;SDS011;8482;54.396;18.590;2023-04-27T01:41:02;4.57;;;1.63;;
16727;SDS011;8482;54.396;18.590;2023-04-27T01:43:29;5.60;;;1.70;;
16727;SDS011;8482;54.396;18.590;2023-04-27T01:46:03;3.83;;;1.60;;
16727;SDS011;8482;54.396;18.590;2023-04-27T01:48:34;8.30;;;1.90;;
16727;SDS011;8482;54.396;18.590;2023-04-27T01:51:01;6.07;;;1.63;;
16727;SDS011;8482;54.396;18.590;2023-04-27T01:53:27;5.87;;;1.73;;
16727;SDS011;8482;54.396;18.590;2023-04-27T01:55:54;4.10;;;1.27;;
16727;SDS011;8482;54.396;18.590;2023-04-27T01:58:19;4.83;;;1.80;;
16727;SDS011;8482;54.396;18.590;2023-04-27T02:00:45;4.97;;;1.83;;
16727;SDS011;8482;54.396;18.590;2023-04-27T02:03:11;6.07;;;1.90;;
16727;SDS011;8482;54.396;18.590;2023-04-27T02:05:37;5.57;;;1.70;;
16727;SDS011;8482;54.396;18.590;2023-04-27T02:08:03;4.83;;;1.77;;
16727;SDS011;8482;54.396;18.590;2023-04-27T02:10:30;6.50;;;1.53;;
16727;SDS011;8482;54.396;18.590;2023-04-27T02:12:56;5.93;;;2.03;;
16727;SDS011;8482;54.396;18.590;2023-04-27T02:15:21;6.00;;;1.90;;
16727;SDS011;8482;54.396;18.590;2023-04-27T02:17:47;3.75;;;2.13;;
16727;SDS011;8482;54.396;18.590;2023-04-27T02:20:13;4.37;;;1.33;;
16727;SDS011;8482;54.396;18.590;2023-04-27T02:22:40;6.37;;;1.87;;
16727;SDS011;8482;54.396;18.590;2023-04-27T02:25:08;4.37;;;1.80;;
16727;SDS011;8482;54.396;18.590;2023-04-27T02:27:38;4.57;;;1.80;;
16727;SDS011;8482;54.396;18.590;2023-04-27T02:30:06;4.93;;;1.33;;
16727;SDS011;8482;54.396;18.590;2023-04-27T02:32:36;8.37;;;2.00;;
16727;SDS011;8482;54.396;18.590;2023-04-27T02:35:02;5.60;;;1.43;;
16727;SDS011;8482;54.396;18.590;2023-04-27T02:37:28;5.23;;;1.67;;
16727;SDS011;8482;54.396;18.590;2023-04-27T02:39:55;5.03;;;1.50;;
16727;SDS011;8482;54.396;18.590;2023-04-27T02:42:21;5.17;;;1.50;;
16727;SDS011;8482;54.396;18.590;2023-04-27T02:44:47;4.33;;;1.63;;
16727;SDS011;8482;54.396;18.590;2023-04-27T02:47:12;5.43;;;1.63;;
16727;SDS011;8482;54.396;18.590;2023-04-27T02:49:38;5.00;;;1.60;;
16727;SDS011;8482;54.396;18.590;2023-04-27T02:52:04;6.37;;;1.80;;
16727;SDS011;8482;54.396;18.590;2023-04-27T02:54:31;5.63;;;2.20;;
16727;SDS011;8482;54.396;18.590;2023-04-27T02:56:58;3.93;;;1.50;;
16727;SDS011;8482;54.396;18.590;2023-04-27T02:59:24;5.17;;;1.43;;
16727;SDS011;8482;54.396;18.590;2023-04-27T03:01:50;4.20;;;1.70;;
16727;SDS011;8482;54.396;18.590;2023-04-27T03:04:16;5.13;;;1.70;;
16727;SDS011;8482;54.396;18.590;2023-04-27T03:06:42;5.60;;;1.63;;
16727;SDS011;8482;54.396;18.590;2023-04-27T03:09:09;5.67;;;1.70;;
16727;SDS011;8482;54.396;18.590;2023-04-27T03:11:35;5.37;;;1.57;;
16727;SDS011;8482;54.396;18.590;2023-04-27T03:14:01;7.77;;;2.10;;
16727;SDS011;8482;54.396;18.590;2023-04-27T03:16:30;7.10;;;1.90;;
16727;SDS011;8482;54.396;18.590;2023-04-27T03:18:57;5.87;;;1.90;;
16727;SDS011;8482;54.396;18.590;2023-04-27T03:21:23;6.37;;;1.93;;
16727;SDS011;8482;54.396;18.590;2023-04-27T03:23:49;5.40;;;1.83;;
16727;SDS011;8482;54.396;18.590;2023-04-27T03:26:14;6.17;;;1.53;;
16727;SDS011;8482;54.396;18.590;2023-04-27T03:28:40;4.43;;;1.83;;
16727;SDS011;8482;54.396;18.590;2023-04-27T03:31:07;4.67;;;1.57;;
16727;SDS011;8482;54.396;18.590;2023-04-27T03:33:35;6.63;;;1.63;;
16727;SDS011;8482;54.396;18.590;2023-04-27T03:36:01;9.37;;;1.90;;
16727;SDS011;8482;54.396;18.590;2023-04-27T03:38:29;4.53;;;1.63;;
16727;SDS011;8482;54.396;18.590;2023-04-27T03:40:56;6.57;;;2.00;;
16727;SDS011;8482;54.396;18.590;2023-04-27T03:43:22;3.10;;;1.77;;
16727;SDS011;8482;54.396;18.590;2023-04-27T03:45:49;4.63;;;1.57;;
16727;SDS011;8482;54.396;18.590;2023-04-27T03:48:15;6.67;;;1.70;;
16727;SDS011;8482;54.396;18.590;2023-04-27T03:50:42;6.57;;;2.03;;
16727;SDS011;8482;54.396;18.590;2023-04-27T03:53:09;7.13;;;2.40;;
16727;SDS011;8482;54.396;18.590;2023-04-27T03:55:42;4.37;;;1.80;;
16727;SDS011;8482;54.396;18.590;2023-04-27T03:58:09;6.17;;;1.70;;
16727;SDS011;8482;54.396;18.590;2023-04-27T04:00:35;5.93;;;1.80;;
16727;SDS011;8482;54.396;18.590;2023-04-27T04:03:05;6.93;;;2.10;;
16727;SDS011;8482;54.396;18.590;2023-04-27T04:05:31;5.63;;;1.73;;
16727;SDS011;8482;54.396;18.590;2023-04-27T04:07:57;7.97;;;1.60;;
16727;SDS011;8482;54.396;18.590;2023-04-27T04:10:23;5.43;;;1.80;;
16727;SDS011;8482;54.396;18.590;2023-04-27T04:12:50;4.33;;;1.60;;
16727;SDS011;8482;54.396;18.590;2023-04-27T04:15:16;3.40;;;1.70;;
16727;SDS011;8482;54.396;18.590;2023-04-27T04:17:43;4.80;;;1.60;;
16727;SDS011;8482;54.396;18.590;2023-04-27T04:20:11;4.00;;;2.13;;
16727;SDS011;8482;54.396;18.590;2023-04-27T04:22:37;3.70;;;1.60;;
16727;SDS011;8482;54.396;18.590;2023-04-27T04:25:03;5.77;;;1.80;;
16727;SDS011;8482;54.396;18.590;2023-04-27T04:27:30;5.73;;;1.67;;
16727;SDS011;8482;54.396;18.590;2023-04-27T04:29:56;4.07;;;1.80;;
16727;SDS011;8482;54.396;18.590;2023-04-27T04:32:25;5.87;;;1.80;;
16727;SDS011;8482;54.396;18.590;2023-04-27T04:34:55;4.40;;;1.63;;
16727;SDS011;8482;54.396;18.590;2023-04-27T04:37:22;4.07;;;1.70;;
16727;SDS011;8482;54.396;18.590;2023-04-27T04:39:48;5.07;;;2.00;;
16727;SDS011;8482;54.396;18.590;2023-04-27T04:42:14;4.53;;;1.70;;
16727;SDS011;8482;54.396;18.590;2023-04-27T04:44:40;5.80;;;1.90;;
16727;SDS011;8482;54.396;18.590;2023-04-27T04:47:06;6.33;;;1.70;;
16727;SDS011;8482;54.396;18.590;2023-04-27T04:49:34;3.63;;;1.80;;
16727;SDS011;8482;54.396;18.590;2023-04-27T04:52:00;5.80;;;1.90;;
16727;SDS011;8482;54.396;18.590;2023-04-27T04:54:28;6.97;;;1.97;;
16727;SDS011;8482;54.396;18.590;2023-04-27T04:56:55;7.43;;;2.60;;
16727;SDS011;8482;54.396;18.590;2023-04-27T04:59:22;5.80;;;2.10;;
16727;SDS011;8482;54.396;18.590;2023-04-27T05:01:49;6.07;;;2.27;;
16727;SDS011;8482;54.396;18.590;2023-04-27T05:04:14;6.33;;;2.13;;
16727;SDS011;8482;54.396;18.590;2023-04-27T05:06:42;4.07;;;1.93;;
16727;SDS011;8482;54.396;18.590;2023-04-27T05:09:08;6.23;;;2.27;;
16727;SDS011;8482;54.396;18.590;2023-04-27T05:11:33;6.30;;;2.73;;
16727;SDS011;8482;54.396;18.590;2023-04-27T05:13:59;7.97;;;3.30;;
16727;SDS011;8482;54.396;18.590;2023-04-27T05:16:25;5.63;;;2.07;;
16727;SDS011;8482;54.396;18.590;2023-04-27T05:18:51;7.57;;;3.43;;
16727;SDS011;8482;54.396;18.590;2023-04-27T05:21:18;5.63;;;1.93;;
16727;SDS011;8482;54.396;18.590;2023-04-27T05:23:46;5.85;;;1.92;;
16727;SDS011;8482;54.396;18.590;2023-04-27T05:28:40;5.23;;;2.00;;
16727;SDS011;8482;54.396;18.590;2023-04-27T05:31:06;8.07;;;1.90;;
16727;SDS011;8482;54.396;18.590;2023-04-27T05:33:32;6.38;;;2.25;;
16727;SDS011;8482;54.396;18.590;2023-04-27T05:35:58;7.63;;;2.72;;
16727;SDS011;8482;54.396;18.590;2023-04-27T05:38:24;5.93;;;2.30;;
16727;SDS011;8482;54.396;18.590;2023-04-27T05:40:53;4.47;;;1.95;;
16727;SDS011;8482;54.396;18.590;2023-04-27T05:43:21;5.85;;;2.50;;
16727;SDS011;8482;54.396;18.590;2023-04-27T05:45:47;5.07;;;2.10;;
16727;SDS011;8482;54.396;18.590;2023-04-27T05:48:13;5.68;;;1.83;;
16727;SDS011;8482;54.396;18.590;2023-04-27T05:50:39;8.23;;;2.05;;
16727;SDS011;8482;54.396;18.590;2023-04-27T05:53:05;4.37;;;1.80;;
16727;SDS011;8482;54.396;18.590;2023-04-27T05:55:31;5.18;;;1.83;;
16727;SDS011;8482;54.396;18.590;2023-04-27T05:57:57;7.07;;;1.67;;
16727;SDS011;8482;54.396;18.590;2023-04-27T06:00:23;6.53;;;2.25;;
16727;SDS011;8482;54.396;18.590;2023-04-27T06:02:49;5.50;;;1.83;;
16727;SDS011;8482;54.396;18.590;2023-04-27T06:05:15;5.53;;;2.15;;
16727;SDS011;8482;54.396;18.590;2023-04-27T06:07:41;6.97;;;2.28;;
16727;SDS011;8482;54.396;18.590;2023-04-27T06:10:08;4.53;;;1.70;;
16727;SDS011;8482;54.396;18.590;2023-04-27T06:12:35;6.17;;;1.83;;
16727;SDS011;8482;54.396;18.590;2023-04-27T06:15:02;8.53;;;2.40;;
16727;SDS011;8482;54.396;18.590;2023-04-27T06:17:37;8.30;;;2.05;;
16727;SDS011;8482;54.396;18.590;2023-04-27T06:20:04;5.35;;;1.65;;
16727;SDS011;8482;54.396;18.590;2023-04-27T06:22:31;5.65;;;1.58;;
16727;SDS011;8482;54.396;18.590;2023-04-27T06:24:57;5.10;;;1.67;;
16727;SDS011;8482;54.396;18.590;2023-04-27T06:27:23;4.57;;;1.52;;
16727;SDS011;8482;54.396;18.590;2023-04-27T06:29:49;5.80;;;1.88;;
16727;SDS011;8482;54.396;18.590;2023-04-27T06:32:16;5.03;;;1.70;;
16727;SDS011;8482;54.396;18.590;2023-04-27T06:34:41;4.53;;;1.77;;
16727;SDS011;8482;54.396;18.590;2023-04-27T06:37:07;3.28;;;1.20;;
16727;SDS011;8482;54.396;18.590;2023-04-27T06:39:33;3.20;;;1.55;;
16727;SDS011;8482;54.396;18.590;2023-04-27T06:41:59;4.95;;;2.05;;
16727;SDS011;8482;54.396;18.590;2023-04-27T06:44:25;6.47;;;1.45;;
16727;SDS011;8482;54.396;18.590;2023-04-27T06:46:51;6.43;;;1.50;;
16727;SDS011;8482;54.396;18.590;2023-04-27T06:49:17;5.57;;;1.90;;
16727;SDS011;8482;54.396;18.590;2023-04-27T06:51:42;5.03;;;2.08;;
16727;SDS011;8482;54.396;18.590;2023-04-27T06:54:10;5.53;;;1.90;;
16727;SDS011;8482;54.396;18.590;2023-04-27T06:56:36;5.75;;;1.55;;
16727;SDS011;8482;54.396;18.590;2023-04-27T06:59:02;7.07;;;2.63;;
16727;SDS011;8482;54.396;18.590;2023-04-27T07:01:28;4.20;;;1.67;;
16727;SDS011;8482;54.396;18.590;2023-04-27T07:03:54;3.83;;;1.98;;
16727;SDS011;8482;54.396;18.590;2023-04-27T07:06:21;7.05;;;1.80;;
16727;SDS011;8482;54.396;18.590;2023-04-27T07:08:49;5.07;;;2.35;;
16727;SDS011;8482;54.396;18.590;2023-04-27T07:11:15;4.22;;;1.45;;
16727;SDS011;8482;54.396;18.590;2023-04-27T07:13:41;3.95;;;1.67;;
16727;SDS011;8482;54.396;18.590;2023-04-27T07:16:07;4.60;;;1.52;;
16727;SDS011;8482;54.396;18.590;2023-04-27T07:18:33;3.92;;;1.70;;
16727;SDS011;8482;54.396;18.590;2023-04-27T07:20:59;4.38;;;1.75;;
16727;SDS011;8482;54.396;18.590;2023-04-27T07:23:25;5.00;;;2.30;;
16727;SDS011;8482;54.396;18.590;2023-04-27T07:25:51;5.15;;;1.85;;
16727;SDS011;8482;54.396;18.590;2023-04-27T07:28:18;5.75;;;2.10;;
16727;SDS011;8482;54.396;18.590;2023-04-27T07:30:44;5.57;;;1.80;;
16727;SDS011;8482;54.396;18.590;2023-04-27T07:33:10;3.78;;;1.70;;
16727;SDS011;8482;54.396;18.590;2023-04-27T07:35:37;8.32;;;2.22;;
16727;SDS011;8482;54.396;18.590;2023-04-27T07:38:03;5.15;;;1.90;;
16727;SDS011;8482;54.396;18.590;2023-04-27T07:40:29;7.05;;;2.05;;
16727;SDS011;8482;54.396;18.590;2023-04-27T07:42:56;4.30;;;1.67;;
16727;SDS011;8482;54.396;18.590;2023-04-27T07:45:22;5.53;;;1.60;;
16727;SDS011;8482;54.396;18.590;2023-04-27T07:47:55;3.67;;;1.50;;
16727;SDS011;8482;54.396;18.590;2023-04-27T07:50:26;4.00;;;1.50;;
16727;SDS011;8482;54.396;18.590;2023-04-27T07:52:56;4.45;;;1.20;;
16727;SDS011;8482;54.396;18.590;2023-04-27T07:55:22;4.20;;;1.42;;
16727;SDS011;8482;54.396;18.590;2023-04-27T07:57:50;3.35;;;1.40;;
16727;SDS011;8482;54.396;18.590;2023-04-27T08:00:21;4.57;;;1.95;;
16727;SDS011;8482;54.396;18.590;2023-04-27T08:02:49;2.67;;;1.42;;
16727;SDS011;8482;54.396;18.590;2023-04-27T08:05:17;6.57;;;1.70;;
16727;SDS011;8482;54.396;18.590;2023-04-27T08:07:43;3.83;;;1.38;;
16727;SDS011;8482;54.396;18.590;2023-04-27T08:10:09;3.63;;;1.50;;
16727;SDS011;8482;54.396;18.590;2023-04-27T08:12:36;3.60;;;1.25;;
16727;SDS011;8482;54.396;18.590;2023-04-27T08:15:01;6.55;;;1.65;;
16727;SDS011;8482;54.396;18.590;2023-04-27T08:17:29;2.97;;;1.45;;
16727;SDS011;8482;54.396;18.590;2023-04-27T08:19:55;4.78;;;1.58;;
16727;SDS011;8482;54.396;18.590;2023-04-27T08:22:21;6.93;;;1.48;;
16727;SDS011;8482;54.396;18.590;2023-04-27T08:24:47;4.22;;;1.20;;
16727;SDS011;8482;54.396;18.590;2023-04-27T08:27:12;3.95;;;1.20;;
16727;SDS011;8482;54.396;18.590;2023-04-27T08:29:43;3.20;;;1.00;;
16727;SDS011;8482;54.396;18.590;2023-04-27T08:32:13;1.92;;;1.33;;
16727;SDS011;8482;54.396;18.590;2023-04-27T08:34:40;1.48;;;0.98;;
16727;SDS011;8482;54.396;18.590;2023-04-27T08:37:06;2.08;;;1.08;;
16727;SDS011;8482;54.396;18.590;2023-04-27T08:39:32;2.38;;;1.10;;
16727;SDS011;8482;54.396;18.590;2023-04-27T08:41:58;3.75;;;1.45;;
16727;SDS011;8482;54.396;18.590;2023-04-27T08:44:24;2.63;;;1.20;;
16727;SDS011;8482;54.396;18.590;2023-04-27T08:46:50;2.33;;;1.00;;
16727;SDS011;8482;54.396;18.590;2023-04-27T08:49:16;2.67;;;1.00;;
16727;SDS011;8482;54.396;18.590;2023-04-27T08:51:42;1.73;;;0.90;;
16727;SDS011;8482;54.396;18.590;2023-04-27T08:54:08;1.85;;;1.00;;
16727;SDS011;8482;54.396;18.590;2023-04-27T08:56:34;2.83;;;1.10;;
16727;SDS011;8482;54.396;18.590;2023-04-27T08:59:00;3.67;;;1.10;;
16727;SDS011;8482;54.396;18.590;2023-04-27T09:01:29;2.92;;;1.17;;
16727;SDS011;8482;54.396;18.590;2023-04-27T09:03:59;2.05;;;1.08;;
16727;SDS011;8482;54.396;18.590;2023-04-27T09:06:32;1.88;;;1.17;;
16727;SDS011;8482;54.396;18.590;2023-04-27T09:09:00;1.83;;;1.15;;
16727;SDS011;8482;54.396;18.590;2023-04-27T09:11:31;1.95;;;1.00;;
16727;SDS011;8482;54.396;18.590;2023-04-27T09:14:00;4.55;;;1.40;;
16727;SDS011;8482;54.396;18.590;2023-04-27T09:16:55;4.30;;;1.25;;
16727;SDS011;8482;54.396;18.590;2023-04-27T09:19:26;1.90;;;1.10;;
16727;SDS011;8482;54.396;18.590;2023-04-27T09:24:48;3.90;;;1.42;;
16727;SDS011;8482;54.396;18.590;2023-04-27T09:27:20;5.20;;;1.30;;
16727;SDS011;8482;54.396;18.590;2023-04-27T09:29:47;4.13;;;1.63;;
16727;SDS011;8482;54.396;18.590;2023-04-27T09:32:16;4.82;;;1.70;;
16727;SDS011;8482;54.396;18.590;2023-04-27T09:34:44;2.70;;;1.30;;
16727;SDS011;8482;54.396;18.590;2023-04-27T09:37:11;1.92;;;1.10;;
16727;SDS011;8482;54.396;18.590;2023-04-27T09:39:38;5.03;;;1.20;;
16727;SDS011;8482;54.396;18.590;2023-04-27T09:42:06;2.92;;;1.20;;
16727;SDS011;8482;54.396;18.590;2023-04-27T09:44:32;2.15;;;1.00;;
16727;SDS011;8482;54.396;18.590;2023-04-27T09:47:00;3.30;;;1.17;;
16727;SDS011;8482;54.396;18.590;2023-04-27T09:49:26;3.15;;;1.30;;
16727;SDS011;8482;54.396;18.590;2023-04-27T09:51:56;3.42;;;1.30;;
16727;SDS011;8482;54.396;18.590;2023-04-27T09:54:23;3.15;;;1.40;;
16727;SDS011;8482;54.396;18.590;2023-04-27T09:57:09;2.55;;;1.23;;
16727;SDS011;8482;54.396;18.590;2023-04-27T10:03:21;3.47;;;1.48;;
16727;SDS011;8482;54.396;18.590;2023-04-27T10:09:40;2.58;;;1.42;;
16727;SDS011;8482;54.396;18.590;2023-04-27T10:14:59;2.47;;;1.25;;
16727;SDS011;8482;54.396;18.590;2023-04-27T10:17:50;1.55;;;1.08;;
16727;SDS011;8482;54.396;18.590;2023-04-27T10:20:29;3.30;;;1.10;;
16727;SDS011;8482;54.396;18.590;2023-04-27T10:22:57;3.38;;;1.40;;
16727;SDS011;8482;54.396;18.590;2023-04-27T10:25:28;4.63;;;1.60;;
16727;SDS011;8482;54.396;18.590;2023-04-27T10:28:02;5.43;;;1.65;;
16727;SDS011;8482;54.396;18.590;2023-04-27T10:30:38;3.40;;;1.30;;
16727;SDS011;8482;54.396;18.590;2023-04-27T10:33:10;2.38;;;1.10;;
16727;SDS011;8482;54.396;18.590;2023-04-27T10:35:43;1.90;;;1.00;;
16727;SDS011;8482;54.396;18.590;2023-04-27T10:38:21;1.88;;;1.10;;
16727;SDS011;8482;54.396;18.590;2023-04-27T10:40:53;1.83;;;0.90;;
16727;SDS011;8482;54.396;18.590;2023-04-27T10:43:26;3.42;;;1.33;;
16727;SDS011;8482;54.396;18.590;2023-04-27T10:46:05;2.97;;;1.17;;
16727;SDS011;8482;54.396;18.590;2023-04-27T10:48:40;2.58;;;0.80;;
16727;SDS011;8482;54.396;18.590;2023-04-27T10:51:07;1.25;;;0.85;;
16727;SDS011;8482;54.396;18.590;2023-04-27T10:53:34;0.95;;;0.73;;
16727;SDS011;8482;54.396;18.590;2023-04-27T10:56:03;1.65;;;1.00;;
16727;SDS011;8482;54.396;18.590;2023-04-27T10:58:31;2.72;;;0.98;;
16727;SDS011;8482;54.396;18.590;2023-04-27T11:00:58;2.60;;;0.77;;
16727;SDS011;8482;54.396;18.590;2023-04-27T11:03:24;1.35;;;0.80;;
16727;SDS011;8482;54.396;18.590;2023-04-27T11:06:00;4.57;;;1.17;;
16727;SDS011;8482;54.396;18.590;2023-04-27T11:08:29;2.28;;;1.00;;
16727;SDS011;8482;54.396;18.590;2023-04-27T11:10:56;2.60;;;0.88;;
16727;SDS011;8482;54.396;18.590;2023-04-27T11:13:23;3.20;;;1.30;;
16727;SDS011;8482;54.396;18.590;2023-04-27T11:15:56;4.60;;;2.55;;
16727;SDS011;8482;54.396;18.590;2023-04-27T11:18:24;3.10;;;1.02;;
16727;SDS011;8482;54.396;18.590;2023-04-27T11:21:17;2.67;;;1.20;;
16727;SDS011;8482;54.396;18.590;2023-04-27T11:23:44;4.40;;;1.73;;
16727;SDS011;8482;54.396;18.590;2023-04-27T11:26:14;3.42;;;1.60;;
16727;SDS011;8482;54.396;18.590;2023-04-27T11:28:43;2.75;;;1.13;;
16727;SDS011;8482;54.396;18.590;2023-04-27T11:31:23;4.07;;;1.20;;
16727;SDS011;8482;54.396;18.590;2023-04-27T11:33:49;1.40;;;1.08;;
16727;SDS011;8482;54.396;18.590;2023-04-27T11:36:20;2.25;;;1.00;;
16727;SDS011;8482;54.396;18.590;2023-04-27T11:38:47;4.10;;;1.50;;
16727;SDS011;8482;54.396;18.590;2023-04-27T11:41:13;3.83;;;1.95;;
16727;SDS011;8482;54.396;18.590;2023-04-27T11:43:40;1.50;;;0.80;;
16727;SDS011;8482;54.396;18.590;2023-04-27T11:46:10;3.72;;;1.08;;
16727;SDS011;8482;54.396;18.590;2023-04-27T11:48:36;3.28;;;1.00;;
16727;SDS011;8482;54.396;18.590;2023-04-27T11:51:04;2.15;;;1.10;;
16727;SDS011;8482;54.396;18.590;2023-04-27T11:53:35;3.38;;;1.10;;
16727;SDS011;8482;54.396;18.590;2023-04-27T11:56:03;2.50;;;1.10;;
16727;SDS011;8482;54.396;18.590;2023-04-27T11:58:34;2.90;;;0.90;;
16727;SDS011;8482;54.396;18.590;2023-04-27T12:01:02;2.35;;;0.93;;
16727;SDS011;8482;54.396;18.590;2023-04-27T12:03:29;1.30;;;0.80;;
16727;SDS011;8482;54.396;18.590;2023-04-27T12:05:55;2.17;;;1.20;;
16727;SDS011;8482;54.396;18.590;2023-04-27T12:08:22;4.30;;;1.20;;
16727;SDS011;8482;54.396;18.590;2023-04-27T12:10:48;1.70;;;0.90;;
16727;SDS011;8482;54.396;18.590;2023-04-27T12:13:15;2.05;;;0.90;;
16727;SDS011;8482;54.396;18.590;2023-04-27T12:15:41;3.45;;;1.10;;
16727;SDS011;8482;54.396;18.590;2023-04-27T12:18:07;1.88;;;0.90;;
16727;SDS011;8482;54.396;18.590;2023-04-27T12:20:34;1.73;;;1.00;;
16727;SDS011;8482;54.396;18.590;2023-04-27T12:23:01;1.67;;;0.95;;
16727;SDS011;8482;54.396;18.590;2023-04-27T12:25:27;1.83;;;0.77;;
16727;SDS011;8482;54.396;18.590;2023-04-27T12:27:53;2.83;;;1.20;;
16727;SDS011;8482;54.396;18.590;2023-04-27T12:30:19;2.53;;;1.30;;
16727;SDS011;8482;54.396;18.590;2023-04-27T12:32:47;1.63;;;0.80;;
16727;SDS011;8482;54.396;18.590;2023-04-27T12:35:13;4.32;;;1.05;;
16727;SDS011;8482;54.396;18.590;2023-04-27T12:37:39;1.40;;;0.88;;
16727;SDS011;8482;54.396;18.590;2023-04-27T12:40:06;2.47;;;1.00;;
16727;SDS011;8482;54.396;18.590;2023-04-27T12:42:33;1.92;;;1.13;;
16727;SDS011;8482;54.396;18.590;2023-04-27T12:44:59;3.88;;;0.90;;
16727;SDS011;8482;54.396;18.590;2023-04-27T12:47:26;2.60;;;1.13;;
16727;SDS011;8482;54.396;18.590;2023-04-27T12:49:52;2.15;;;1.05;;
16727;SDS011;8482;54.396;18.590;2023-04-27T12:52:18;2.58;;;0.80;;
16727;SDS011;8482;54.396;18.590;2023-04-27T12:54:44;3.42;;;1.05;;
16727;SDS011;8482;54.396;18.590;2023-04-27T12:57:10;3.85;;;1.23;;
16727;SDS011;8482;54.396;18.590;2023-04-27T12:59:37;1.55;;;1.02;;
16727;SDS011;8482;54.396;18.590;2023-04-27T13:02:03;2.08;;;1.10;;
16727;SDS011;8482;54.396;18.590;2023-04-27T13:04:32;3.90;;;1.20;;
16727;SDS011;8482;54.396;18.590;2023-04-27T13:06:59;1.85;;;1.00;;
16727;SDS011;8482;54.396;18.590;2023-04-27T13:09:28;4.60;;;1.30;;
16727;SDS011;8482;54.396;18.590;2023-04-27T13:11:54;1.70;;;1.05;;
16727;SDS011;8482;54.396;18.590;2023-04-27T13:14:21;1.55;;;0.80;;
16727;SDS011;8482;54.396;18.590;2023-04-27T13:16:47;3.50;;;1.35;;
16727;SDS011;8482;54.396;18.590;2023-04-27T13:19:13;2.17;;;1.10;;
16727;SDS011;8482;54.396;18.590;2023-04-27T13:21:39;1.92;;;1.00;;
16727;SDS011;8482;54.396;18.590;2023-04-27T13:24:05;1.90;;;0.88;;
16727;SDS011;8482;54.396;18.590;2023-04-27T13:26:31;1.65;;;0.90;;
16727;SDS011;8482;54.396;18.590;2023-04-27T13:28:58;2.20;;;1.00;;
16727;SDS011;8482;54.396;18.590;2023-04-27T13:31:26;2.75;;;0.90;;
16727;SDS011;8482;54.396;18.590;2023-04-27T13:33:52;2.53;;;1.00;;
16727;SDS011;8482;54.396;18.590;2023-04-27T13:36:18;1.27;;;1.02;;
16727;SDS011;8482;54.396;18.590;2023-04-27T13:38:44;1.10;;;0.80;;
16727;SDS011;8482;54.396;18.590;2023-04-27T13:41:09;3.40;;;1.00;;
16727;SDS011;8482;54.396;18.590;2023-04-27T13:43:35;1.90;;;1.10;;
16727;SDS011;8482;54.396;18.590;2023-04-27T13:46:01;2.38;;;1.00;;
16727;SDS011;8482;54.396;18.590;2023-04-27T13:48:27;2.30;;;1.05;;
16727;SDS011;8482;54.396;18.590;2023-04-27T13:50:54;2.42;;;1.10;;
16727;SDS011;8482;54.396;18.590;2023-04-27T13:53:20;1.00;;;0.80;;
16727;SDS011;8482;54.396;18.590;2023-04-27T13:55:50;1.45;;;0.80;;
16727;SDS011;8482;54.396;18.590;2023-04-27T13:58:17;1.20;;;0.65;;
16727;SDS011;8482;54.396;18.590;2023-04-27T14:00:43;2.88;;;0.75;;
16727;SDS011;8482;54.396;18.590;2023-04-27T14:03:11;2.33;;;0.90;;
16727;SDS011;8482;54.396;18.590;2023-04-27T14:05:40;1.73;;;0.98;;
16727;SDS011;8482;54.396;18.590;2023-04-27T14:08:06;2.10;;;1.00;;
16727;SDS011;8482;54.396;18.590;2023-04-27T14:10:31;2.58;;;1.05;;
16727;SDS011;8482;54.396;18.590;2023-04-27T14:12:59;2.38;;;0.88;;
16727;SDS011;8482;54.396;18.590;2023-04-27T14:15:25;3.05;;;1.15;;
16727;SDS011;8482;54.396;18.590;2023-04-27T14:17:52;1.77;;;0.90;;
16727;SDS011;8482;54.396;18.590;2023-04-27T14:20:17;1.40;;;0.90;;
16727;SDS011;8482;54.396;18.590;2023-04-27T14:22:43;2.03;;;0.90;;
16727;SDS011;8482;54.396;18.590;2023-04-27T14:25:10;2.58;;;0.90;;
16727;SDS011;8482;54.396;18.590;2023-04-27T14:27:36;2.60;;;1.10;;
16727;SDS011;8482;54.396;18.590;2023-04-27T14:30:02;2.20;;;1.35;;
16727;SDS011;8482;54.396;18.590;2023-04-27T14:32:28;2.35;;;1.00;;
16727;SDS011;8482;54.396;18.590;2023-04-27T14:34:54;4.53;;;1.10;;
16727;SDS011;8482;54.396;18.590;2023-04-27T14:37:20;2.92;;;1.00;;
16727;SDS011;8482;54.396;18.590;2023-04-27T14:39:45;2.53;;;1.08;;
16727;SDS011;8482;54.396;18.590;2023-04-27T14:42:11;3.47;;;1.00;;
16727;SDS011;8482;54.396;18.590;2023-04-27T14:44:37;3.00;;;1.25;;
16727;SDS011;8482;54.396;18.590;2023-04-27T14:47:03;2.17;;;1.20;;
16727;SDS011;8482;54.396;18.590;2023-04-27T14:49:30;2.10;;;0.98;;
16727;SDS011;8482;54.396;18.590;2023-04-27T14:51:56;1.55;;;0.85;;
16727;SDS011;8482;54.396;18.590;2023-04-27T14:54:23;3.92;;;0.93;;
16727;SDS011;8482;54.396;18.590;2023-04-27T14:56:49;2.88;;;0.70;;
16727;SDS011;8482;54.396;18.590;2023-04-27T14:59:15;3.53;;;1.23;;
16727;SDS011;8482;54.396;18.590;2023-04-27T15:01:40;2.40;;;0.90;;
16727;SDS011;8482;54.396;18.590;2023-04-27T15:04:08;1.92;;;1.10;;